PWSweather.com
Personal Weather Stations
Station Observations
WISCHPK61
Green Bay Schmitt Park, Green Bay, WI 54311

Green Bay Schmitt ParkGreen Bay, WI 54311

Lat: 44.514277, Lon: -87.935067

Elevation: 735

Station Type: Acu Rite Pro Weather Center model 02032C

http://greenbayweathercam.com

High Low Average
Temperature 32.9°F0.5°C 28.9°F-1.7°C 31.4°F-0.3°C
Dew Point 32.7°F0.4°C 26.9°F-2.8°C 30.0°F-1.1°C
Winds 1.2 mph 1.9 kmh Calm Calm Calm ESECalm ESE
Wind Gusts 4.6 mph7.4 kmh -- --
Humidity 99% 80% 95%
Pressure 29.40 in995.6 mb 28.94 in980.0 mb -
Precipitation 0.00 in0.0 mm - -
Hour Temp Dew Point Humidity Winds Wind Gusts Pressure Precip Precip Rate Daily Precip Total
12:00 AM 32.7°F0.4°C 32.5°F0.3°C 99% Calm Calm -- 29.41 in995.9 mb - 0.00 in0.0 mm 0.00 in0.0 mm
01:00 AM 32.9°F0.5°C 32.7°F0.4°C 99% Calm Calm -- 29.39 in995.3 mb - 0.00 in0.0 mm 0.00 in0.0 mm
02:00 AM 31.6°F-0.2°C 31.4°F-0.3°C 99% Calm Calm -- 29.38 in994.9 mb - 0.00 in0.0 mm 0.00 in0.0 mm
03:00 AM 31.6°F-0.2°C 31.4°F-0.3°C 99% Calm Calm -- 29.38 in994.9 mb - 0.00 in0.0 mm 0.00 in0.0 mm
04:00 AM 30.6°F-0.8°C 29.9°F-1.2°C 97% Calm Calm -- 29.37 in994.6 mb - 0.00 in0.0 mm 0.00 in0.0 mm
05:00 AM 30.0°F-1.1°C 29.8°F-1.2°C 99% Calm Calm -- 29.34 in993.6 mb - 0.00 in0.0 mm 0.00 in0.0 mm
06:00 AM 29.8°F-1.2°C 29.6°F-1.3°C 99% Calm Calm -- 29.34 in993.6 mb - 0.00 in0.0 mm 0.00 in0.0 mm
07:00 AM 29.3°F-1.5°C 29.1°F-1.6°C 99% Calm Calm -- 29.40 in995.6 mb - 0.00 in0.0 mm 0.00 in0.0 mm
08:00 AM 28.9°F-1.7°C 28.7°F-1.8°C 99% Calm Calm -- 29.33 in993.2 mb - 0.00 in0.0 mm 0.00 in0.0 mm
09:00 AM 29.5°F-1.4°C 29.3°F-1.5°C 99% Calm Calm -- 29.32 in992.9 mb - 0.00 in0.0 mm 0.00 in0.0 mm
10:00 AM 30.2°F-1.0°C 27.9°F-2.3°C 91% Calm Calm -- 29.30 in992.2 mb - 0.00 in0.0 mm 0.00 in0.0 mm
11:00 AM 30.4°F-0.9°C 30.2°F-1.0°C 99% Calm Calm -- 29.32 in992.9 mb - 0.00 in0.0 mm 0.00 in0.0 mm
12:00 PM 30.4°F-0.9°C 30.2°F-1.0°C 99% Calm Calm -- 29.23 in989.8 mb - 0.00 in0.0 mm 0.00 in0.0 mm
01:00 PM 31.8°F-0.1°C 31.6°F-0.2°C 99% Calm Calm 1.2 mph1.9 kmh 29.24 in990.2 mb - 0.00 in0.0 mm 0.00 in0.0 mm
02:00 PM 32.4°F0.2°C 32.2°F0.1°C 99% Calm Calm 4.6 mph7.4 kmh 29.16 in987.5 mb - 0.00 in0.0 mm 0.00 in0.0 mm
03:00 PM 32.2°F0.1°C 27.4°F-2.6°C 82% Calm Calm -- 29.16 in987.5 mb - 0.00 in0.0 mm 0.00 in0.0 mm
04:00 PM 32.2°F0.1°C 32.0°F0.0°C 99% 1.2 mph SE1.9 kmh SE 1.2 mph1.9 kmh 29.13 in986.5 mb - 0.00 in0.0 mm 0.00 in0.0 mm
05:00 PM 32.0°F0.0°C 28.0°F-2.2°C 85% Calm Calm -- 29.12 in986.1 mb - 0.00 in0.0 mm 0.00 in0.0 mm
06:00 PM 32.4°F0.2°C 27.8°F-2.3°C 83% Calm Calm -- 29.11 in985.8 mb - 0.00 in0.0 mm 0.00 in0.0 mm
07:00 PM 32.7°F0.4°C 28.7°F-1.8°C 85% Calm Calm -- 29.09 in985.1 mb - 0.00 in0.0 mm 0.00 in0.0 mm
08:00 PM 32.4°F0.2°C 26.9°F-2.8°C 80% Calm Calm -- 29.07 in984.4 mb - 0.00 in0.0 mm 0.00 in0.0 mm
09:00 PM 32.2°F0.1°C 32.0°F0.0°C 99% Calm Calm -- 29.04 in983.4 mb - 0.00 in0.0 mm 0.00 in0.0 mm
10:00 PM 32.2°F0.1°C 32.0°F0.0°C 99% Calm Calm -- 29.00 in982.1 mb - 0.00 in0.0 mm 0.00 in0.0 mm
11:00 PM 32.4°F0.2°C 32.2°F0.1°C 99% Calm Calm 1.2 mph1.9 kmh 28.97 in981.0 mb - 0.00 in0.0 mm 0.00 in0.0 mm